Time;durP1;ratioP1;P1;durP2;ratioP2;P2;SDS_P1;SDS_P2;PMS_P1;PMS_P2;Temp;Humidity;BMP_temperature;BMP_pressure;BME280_temperature;BME280_humidity;BME280_pressure;Samples;Min_cycle;Max_cycle;Signal;HPM_P1;HPM_P2
2022/09/25 00:00:25;;;;;;;16.02;13.35;;;;;;;13.72;100.00;100073.44;5037566;28;20469;-75
2022/09/25 00:02:51;;;;;;;19.23;15.07;;;;;;;13.74;100.00;100081.50;5036836;28;20197;-74
2022/09/25 00:05:18;;;;;;;20.17;15.57;;;;;;;13.68;100.00;100087.28;5035695;28;20207;-73
2022/09/25 00:07:44;;;;;;;18.83;14.48;;;;;;;13.68;100.00;100081.88;5035607;28;20235;-75
2022/09/25 00:10:11;;;;;;;16.15;13.88;;;;;;;13.68;100.00;100084.56;5035319;28;20207;-74
2022/09/25 00:12:41;;;;;;;14.50;11.98;;;;;;;13.69;100.00;100078.22;5025215;28;20221;-74
2022/09/25 00:15:08;;;;;;;18.65;12.85;;;;;;;13.70;100.00;100078.13;5033811;28;20201;-75
2022/09/25 00:17:35;;;;;;;18.25;12.75;;;;;;;13.69;100.00;100078.22;5036484;28;20220;-74
2022/09/25 00:20:01;;;;;;;16.80;13.45;;;;;;;13.67;100.00;100070.19;5037143;28;20643;-75
2022/09/25 00:22:29;;;;;;;17.80;13.13;;;;;;;13.69;100.00;100081.78;5039492;28;20201;-75
2022/09/25 00:24:56;;;;;;;21.00;14.38;;;;;;;13.68;100.00;100079.16;5032107;28;20983;-75
2022/09/25 00:27:23;;;;;;;17.88;12.68;;;;;;;13.67;100.00;100082.84;5037956;28;20326;-77
2022/09/25 00:29:52;;;;;;;18.25;11.82;;;;;;;13.69;100.00;100087.19;5038515;28;20216;-74
2022/09/25 00:32:18;;;;;;;18.00;13.80;;;;;;;13.70;100.00;100083.53;5037243;28;20259;-74
2022/09/25 00:34:45;;;;;;;19.73;14.63;;;;;;;13.69;100.00;100076.38;5029440;28;20572;-75
2022/09/25 00:37:11;;;;;;;17.08;14.43;;;;;;;13.72;100.00;100084.28;5045718;28;20515;-75
2022/09/25 00:39:38;;;;;;;20.75;15.38;;;;;;;13.73;100.00;100085.19;5050085;28;20190;-74
2022/09/25 00:42:05;;;;;;;20.25;14.20;;;;;;;13.70;100.00;100067.31;5043856;28;20197;-73
2022/09/25 00:44:56;;;;;;;16.40;13.55;;;;;;;13.69;100.00;100070.09;5043243;28;20317;-74
2022/09/25 00:47:30;;;;;;;16.88;13.77;;;;;;;13.71;100.00;100065.47;5039992;28;20275;-75
2022/09/25 00:50:02;;;;;;;17.75;13.88;;;;;;;13.71;100.00;100057.34;5040623;28;20283;-74
2022/09/25 00:52:30;;;;;;;18.25;13.38;;;;;;;13.71;100.00;100060.03;5040272;28;20212;-75
2022/09/25 00:55:00;;;;;;;15.35;12.25;;;;;;;13.66;100.00;100064.88;5034529;28;20205;-74
2022/09/25 00:57:30;;;;;;;16.42;12.90;;;;;;;13.68;100.00;100057.50;5036456;28;20217;-74
2022/09/25 01:00:02;;;;;;;17.75;13.38;;;;;;;13.64;100.00;100069.53;5034573;28;20199;-73
2022/09/25 01:02:33;;;;;;;18.63;14.10;;;;;;;13.65;100.00;100064.00;5033164;28;20233;-74
2022/09/25 01:05:08;;;;;;;18.35;14.00;;;;;;;13.61;100.00;100067.84;5035477;28;20201;-73
2022/09/25 01:07:39;;;;;;;16.02;12.95;;;;;;;13.64;100.00;100066.81;5033227;28;20228;-73
2022/09/25 01:10:07;;;;;;;19.00;13.73;;;;;;;13.62;100.00;100063.34;5037333;28;20196;-74
2022/09/25 01:12:37;;;;;;;16.77;14.05;;;;;;;13.59;100.00;100061.69;5038140;28;20587;-75
2022/09/25 01:15:06;;;;;;;19.73;15.55;;;;;;;13.50;100.00;100065.84;5036505;28;20201;-74
2022/09/25 01:17:43;;;;;;;20.13;14.23;;;;;;;13.55;100.00;100065.56;5043559;28;20222;-75
2022/09/25 01:20:22;;;;;;;22.63;15.02;;;;;;;13.60;100.00;100062.56;5040314;28;20200;-74
2022/09/25 01:23:06;;;;;;;21.77;16.35;;;;;;;13.53;100.00;100070.19;5035274;28;20211;-74
2022/09/25 01:25:46;;;;;;;22.67;16.17;;;;;;;13.56;100.00;100064.56;5038891;28;20204;-75
2022/09/25 01:28:46;;;;;;;24.27;17.23;;;;;;;13.52;100.00;100069.34;5039334;28;20235;-74
2022/09/25 01:31:18;;;;;;;24.60;16.48;;;;;;;13.53;100.00;100067.50;5031721;28;20351;-74
2022/09/25 01:33:48;;;;;;;31.00;21.13;;;;;;;13.46;100.00;100069.72;5041196;28;20204;-75
2022/09/25 01:36:23;;;;;;;28.38;19.00;;;;;;;13.29;100.00;100067.16;5042609;28;20209;-75
2022/09/25 01:38:53;;;;;;;30.48;18.30;;;;;;;13.29;100.00;100075.28;5043030;28;20241;-75
2022/09/25 01:41:26;;;;;;;28.67;20.15;;;;;;;13.21;100.00;100069.47;5046982;28;20237;-74
2022/09/25 01:43:58;;;;;;;37.92;24.80;;;;;;;13.19;100.00;100066.84;5050414;28;20230;-74
2022/09/25 01:46:29;;;;;;;31.00;19.55;;;;;;;13.23;100.00;100068.41;5038154;28;20228;-74
2022/09/25 01:49:00;;;;;;;28.80;19.10;;;;;;;13.31;100.00;100065.25;5039831;28;20255;-74
2022/09/25 01:51:31;;;;;;;31.10;21.80;;;;;;;13.34;100.00;100063.22;5041431;28;20570;-75
2022/09/25 01:54:02;;;;;;;29.08;19.65;;;;;;;13.38;100.00;100061.19;5037747;28;20199;-74
2022/09/25 01:56:33;;;;;;;29.00;19.67;;;;;;;13.42;100.00;100054.63;5032749;28;20201;-75
2022/09/25 01:59:08;;;;;;;27.55;19.13;;;;;;;13.48;100.00;100056.09;5035315;28;20224;-72
2022/09/25 02:01:41;;;;;;;25.50;17.13;;;;;;;13.51;100.00;100040.53;5033387;28;20562;-74
2022/09/25 02:04:12;;;;;;;27.48;18.23;;;;;;;13.55;100.00;100052.91;5034724;28;20200;-75
2022/09/25 02:06:43;;;;;;;23.55;18.08;;;;;;;13.60;100.00;100057.16;5031585;28;20208;-75
2022/09/25 02:09:15;;;;;;;22.17;15.75;;;;;;;13.62;100.00;100056.09;5036524;28;20232;-74
2022/09/25 02:11:47;;;;;;;25.35;17.10;;;;;;;13.61;100.00;100059.75;5034933;28;20207;-75
2022/09/25 02:14:20;;;;;;;25.75;17.92;;;;;;;13.62;100.00;100053.38;5034822;28;20197;-75
2022/09/25 02:16:50;;;;;;;25.55;16.95;;;;;;;13.56;100.00;100049.22;5035742;28;20567;-73
2022/09/25 02:22:06;;;;;;;23.63;16.80;;;;;;;13.65;100.00;100046.91;5034994;28;20224;-76
2022/09/25 02:24:39;;;;;;;24.67;17.30;;;;;;;13.65;100.00;100046.91;5038281;28;20204;-74
2022/09/25 02:27:06;;;;;;;22.05;16.27;;;;;;;13.63;100.00;100048.81;5037717;28;20224;-75
2022/09/25 02:29:34;;;;;;;21.88;17.08;;;;;;;13.61;100.00;100048.06;5036991;28;20519;-73
2022/09/25 02:32:05;;;;;;;30.17;18.08;;;;;;;13.63;100.00;100051.53;5034646;28;20233;-74
2022/09/25 02:34:33;;;;;;;21.45;15.77;;;;;;;13.63;100.00;100041.56;5032380;28;20193;-74
2022/09/25 02:36:59;;;;;;;21.08;16.20;;;;;;;13.62;100.00;100047.09;5038222;28;20202;-74
2022/09/25 02:39:30;;;;;;;22.80;16.58;;;;;;;13.63;100.00;100046.13;5036094;28;20673;-73
2022/09/25 02:42:13;;;;;;;22.60;16.75;;;;;;;13.65;100.00;100041.47;5035826;28;20209;-73
2022/09/25 02:44:56;;;;;;;22.13;15.35;;;;;;;13.67;100.00;100036.84;5028895;28;20212;-74
2022/09/25 02:47:31;;;;;;;24.23;17.00;;;;;;;13.64;100.00;100045.19;5037708;28;20239;-74
2022/09/25 02:50:07;;;;;;;21.30;16.88;;;;;;;13.63;100.00;100038.00;5037451;28;20199;-73
2022/09/25 02:52:43;;;;;;;23.98;17.50;;;;;;;13.61;100.00;100042.63;5036509;28;20323;-74
2022/09/25 02:55:17;;;;;;;24.70;16.42;;;;;;;13.61;100.00;100045.34;5033769;28;20223;-74
2022/09/25 02:57:52;;;;;;;22.88;16.40;;;;;;;13.56;100.00;100043.78;5036047;28;20224;-75
2022/09/25 03:00:21;;;;;;;26.77;17.05;;;;;;;13.54;100.00;100037.66;5035482;28;20639;-75
2022/09/25 03:02:49;;;;;;;22.48;16.10;;;;;;;13.57;100.00;100033.88;5031954;28;20196;-74
2022/09/25 03:05:16;;;;;;;23.55;15.38;;;;;;;13.61;100.00;100035.38;5032612;28;20215;-74
2022/09/25 03:10:30;;;;;;;24.90;16.83;;;;;;;13.66;100.00;100037.81;5036621;28;20675;-75
2022/09/25 03:12:56;;;;;;;20.10;15.48;;;;;;;13.69;100.00;100029.50;5036351;28;20228;-74
2022/09/25 03:15:24;;;;;;;20.40;15.40;;;;;;;13.71;100.00;100044.66;5037150;28;20209;-76
2022/09/25 03:17:52;;;;;;;20.00;14.75;;;;;;;13.71;100.00;100035.69;5040590;28;20225;-74
2022/09/25 03:20:18;;;;;;;20.58;14.57;;;;;;;13.68;100.00;100035.88;5041964;28;20626;-74
2022/09/25 03:22:45;;;;;;;19.98;15.63;;;;;;;13.64;100.00;100040.63;5038569;28;20207;-73
2022/09/25 03:25:12;;;;;;;23.33;16.15;;;;;;;13.64;100.00;100040.63;5034729;28;20227;-74
2022/09/25 03:27:39;;;;;;;21.58;16.42;;;;;;;13.62;100.00;100044.41;5035284;28;20232;-75
2022/09/25 03:30:06;;;;;;;20.42;14.57;;;;;;;13.64;100.00;100042.47;5037518;28;20223;-74
2022/09/25 03:32:34;;;;;;;22.30;15.85;;;;;;;13.65;100.00;100050.47;5038766;28;20220;-73
2022/09/25 03:35:01;;;;;;;21.30;15.98;;;;;;;13.64;100.00;100045.19;5038140;28;20254;-74
2022/09/25 03:37:27;;;;;;;25.05;16.17;;;;;;;13.63;100.00;100041.56;5038583;28;20566;-74
2022/09/25 03:39:54;;;;;;;25.40;16.27;;;;;;;13.52;100.00;100046.78;5036242;28;20202;-73
2022/09/25 03:42:20;;;;;;;30.55;19.13;;;;;;;13.61;100.00;100045.34;5033928;28;22124;-75
2022/09/25 03:44:47;;;;;;;23.75;18.10;;;;;;;13.54;100.00;100037.66;5034099;28;20205;-74
2022/09/25 03:47:14;;;;;;;23.50;16.73;;;;;;;13.58;100.00;100041.00;5034489;28;20209;-74
2022/09/25 03:49:41;;;;;;;28.95;22.42;;;;;;;13.59;100.00;100039.16;5035085;28;20196;-73
2022/09/25 03:52:13;;;;;;;33.22;25.10;;;;;;;13.60;100.00;100038.22;5034383;28;20209;-74
2022/09/25 03:54:39;;;;;;;33.88;25.88;;;;;;;13.59;100.00;100031.03;5024129;28;20633;-75
2022/09/25 03:57:06;;;;;;;28.88;23.02;;;;;;;13.65;100.00;100039.63;5030799;28;20212;-74
2022/09/25 03:59:33;;;;;;;29.00;21.73;;;;;;;13.66;100.00;100036.00;5035695;28;20200;-74
2022/09/25 04:02:01;;;;;;;30.63;21.23;;;;;;;13.66;100.00;100037.81;5035623;28;20204;-74
2022/09/25 04:04:28;;;;;;;28.83;21.20;;;;;;;13.64;100.00;100039.75;5033235;28;20224;-75
2022/09/25 04:06:56;;;;;;;25.17;19.77;;;;;;;13.66;100.00;100037.81;5039556;28;20200;-74
2022/09/25 04:09:23;;;;;;;29.25;21.63;;;;;;;13.65;100.00;100041.47;5038065;28;20220;-75
2022/09/25 04:11:49;;;;;;;28.30;19.17;;;;;;;13.61;100.00;100048.06;5038527;28;20197;-75
2022/09/25 04:14:16;;;;;;;22.15;17.83;;;;;;;13.61;100.00;100040.78;5037718;28;20277;-73
2022/09/25 04:16:42;;;;;;;24.00;18.02;;;;;;;13.60;100.00;100040.91;5038179;28;20205;-75
2022/09/25 04:19:10;;;;;;;21.27;17.08;;;;;;;13.58;100.00;100043.72;5029687;28;20220;-74
2022/09/25 04:21:36;;;;;;;24.30;18.17;;;;;;;13.64;100.00;100040.63;5035851;28;20198;-74
2022/09/25 04:26:51;;;;;;;24.48;18.85;;;;;;;13.65;100.00;100042.34;5035253;28;20208;-74
2022/09/25 04:29:18;;;;;;;22.13;17.80;;;;;;;13.63;100.00;100043.41;5053375;28;20270;-75
2022/09/25 04:33:44;;;;;;;23.60;18.38;;;;;;;13.65;100.00;100044.19;5054402;28;20180;-75
2022/09/25 04:34:30;;;;;;;24.50;17.95;;;;;;;13.64;100.00;100048.75;5054528;28;20200;-75
2022/09/25 04:36:57;;;;;;;24.63;18.00;;;;;;;13.63;100.00;100043.41;5053455;28;20201;-73
2022/09/25 04:39:25;;;;;;;22.13;18.95;;;;;;;13.62;100.00;100047.09;5054522;28;20189;-75
2022/09/25 04:41:51;;;;;;;26.20;18.50;;;;;;;13.60;100.00;100047.19;5053686;28;20202;-76
2022/09/25 04:44:18;;;;;;;27.27;19.10;;;;;;;13.59;100.00;100047.28;5049161;28;20215;-75
2022/09/25 04:46:47;;;;;;;25.15;18.98;;;;;;;13.63;100.00;100048.81;5034493;28;20268;-74
2022/09/25 04:49:14;;;;;;;23.65;18.55;;;;;;;13.64;100.00;100050.59;5043802;23;20233;-71
2022/09/25 04:51:40;;;;;;;27.60;20.33;;;;;;;13.60;100.00;100051.75;5016608;28;20564;-73
2022/09/25 04:54:07;;;;;;;27.60;21.50;;;;;;;13.61;100.00;100053.47;5018151;28;20233;-74
2022/09/25 04:56:35;;;;;;;31.58;23.83;;;;;;;13.52;100.00;100049.50;5018214;28;20213;-72
2022/09/25 04:59:01;;;;;;;29.58;23.77;;;;;;;13.54;100.00;100058.41;5019003;28;20307;-71
2022/09/25 05:01:28;;;;;;;30.38;22.30;;;;;;;13.57;100.00;100055.50;5015536;28;20225;-73
2022/09/25 05:03:54;;;;;;;29.63;23.98;;;;;;;13.63;100.00;100052.41;5015224;28;20205;-74
2022/09/25 05:06:21;;;;;;;26.15;21.00;;;;;;;13.65;100.00;100050.47;5017539;28;20205;-74
2022/09/25 05:08:49;;;;;;;27.42;20.90;;;;;;;13.69;100.00;100053.84;5020549;28;20240;-74
2022/09/25 05:11:15;;;;;;;23.60;19.15;;;;;;;13.69;100.00;100054.72;5028408;28;20203;-74
2022/09/25 05:13:45;;;;;;;27.02;19.17;;;;;;;13.68;100.00;100053.00;5030101;28;20249;-72
2022/09/25 05:16:12;;;;;;;24.30;19.85;;;;;;;13.66;100.00;100054.06;5026212;28;20225;-73
2022/09/25 05:18:38;;;;;;;27.60;19.77;;;;;;;13.65;100.00;100058.59;5018197;28;20251;-73
2022/09/25 05:21:05;;;;;;;23.50;19.42;;;;;;;13.66;100.00;100062.19;5017884;28;20209;-73
2022/09/25 05:23:31;;;;;;;23.17;19.35;;;;;;;13.69;100.00;100056.56;5018336;28;20205;-73
2022/09/25 05:26:00;;;;;;;23.48;19.10;;;;;;;13.67;100.00;100056.66;5021453;28;20508;-73
2022/09/25 05:28:27;;;;;;;25.20;20.08;;;;;;;13.69;100.00;100054.72;5022308;28;20643;-73
2022/09/25 05:30:55;;;;;;;23.52;18.85;;;;;;;13.73;100.00;100056.28;5017180;28;20671;-73
2022/09/25 05:33:21;;;;;;;24.85;18.42;;;;;;;13.75;100.00;100050.78;5014252;28;20604;-72
2022/09/25 05:35:48;;;;;;;25.77;19.10;;;;;;;13.81;100.00;100052.19;5018300;28;20198;-75
2022/09/25 05:38:15;;;;;;;22.48;18.13;;;;;;;13.79;100.00;100049.56;5018824;28;20726;-73
2022/09/25 05:40:42;;;;;;;21.83;18.08;;;;;;;13.80;100.00;100056.75;5016509;28;20275;-73
2022/09/25 05:43:08;;;;;;;22.30;17.60;;;;;;;13.83;100.00;100061.09;5017901;28;20260;-75
2022/09/25 05:45:35;;;;;;;20.70;17.35;;;;;;;13.84;100.00;100057.41;5016775;28;20588;-75
2022/09/25 05:48:04;;;;;;;21.58;17.27;;;;;;;13.87;100.00;100055.38;5018729;28;20204;-73
2022/09/25 05:50:32;;;;;;;22.25;17.80;;;;;;;13.86;100.00;100052.75;5015703;28;20307;-74
2022/09/25 05:52:58;;;;;;;22.27;17.95;;;;;;;13.89;100.00;100050.75;5021054;28;20277;-75
2022/09/25 05:55:25;;;;;;;23.40;17.35;;;;;;;13.91;100.00;100056.94;5017253;28;20573;-74
2022/09/25 05:57:52;;;;;;;23.70;18.60;;;;;;;13.91;100.00;100054.22;5013659;28;20203;-75
2022/09/25 06:00:20;;;;;;;20.85;17.38;;;;;;;13.94;100.00;100045.03;5019942;28;20238;-73
2022/09/25 06:02:52;;;;;;;21.73;17.55;;;;;;;13.98;100.00;100052.84;5022838;28;20283;-72
2022/09/25 06:05:20;;;;;;;22.25;17.27;;;;;;;14.02;100.00;100053.53;5022397;28;20581;-74
2022/09/25 06:07:52;;;;;;;23.77;19.08;;;;;;;13.97;100.00;100051.13;5014934;28;20202;-74
2022/09/25 06:10:19;;;;;;;21.45;18.40;;;;;;;14.01;100.00;100050.91;5017258;28;20229;-74
2022/09/25 06:12:46;;;;;;;21.98;17.48;;;;;;;14.00;100.00;100052.75;5015705;28;20220;-74
2022/09/25 06:15:12;;;;;;;25.13;19.42;;;;;;;13.98;100.00;100044.72;5017154;28;20550;-74
2022/09/25 06:17:39;;;;;;;25.85;20.10;;;;;;;14.00;100.00;100041.94;5016596;28;20202;-75
2022/09/25 06:20:06;;;;;;;24.45;18.90;;;;;;;14.04;100.00;100054.31;5014454;28;20218;-75
2022/09/25 06:22:34;;;;;;;23.83;19.25;;;;;;;14.06;100.00;100052.31;5008800;28;20282;-75
2022/09/25 06:25:00;;;;;;;25.10;20.05;;;;;;;14.01;100.00;100042.78;5015711;28;20194;-74
2022/09/25 06:27:27;;;;;;;24.30;19.33;;;;;;;14.01;100.00;100048.19;5016751;28;20218;-74
2022/09/25 06:29:54;;;;;;;26.10;19.75;;;;;;;13.95;100.00;100035.91;5014499;28;20222;-75
2022/09/25 06:32:22;;;;;;;25.63;19.23;;;;;;;14.01;100.00;100049.06;5011671;28;20210;-74
2022/09/25 06:34:48;;;;;;;27.00;20.70;;;;;;;14.01;100.00;100049.06;5014762;28;20564;-73
2022/09/25 06:37:15;;;;;;;27.27;20.83;;;;;;;14.15;100.00;100045.44;5017784;28;20199;-74
2022/09/25 06:39:43;;;;;;;26.45;20.00;;;;;;;14.19;100.00;100039.72;5014082;28;20311;-73
2022/09/25 06:42:09;;;;;;;26.60;19.52;;;;;;;14.18;100.00;100046.13;5015803;28;20194;-72
2022/09/25 06:44:36;;;;;;;27.10;19.65;;;;;;;14.22;100.00;100041.34;5014474;28;20198;-71
2022/09/25 06:47:02;;;;;;;28.33;20.33;;;;;;;14.29;100.00;100045.44;5021200;28;20202;-73
2022/09/25 06:49:29;;;;;;;27.35;19.80;;;;;;;14.42;100.00;100048.16;5018066;28;20236;-72
2022/09/25 06:51:55;;;;;;;28.55;20.83;;;;;;;14.45;100.00;100041.66;5026418;28;20206;-73
2022/09/25 06:54:22;;;;;;;26.90;20.40;;;;;;;14.48;100.00;100046.91;5030731;28;20228;-72
2022/09/25 06:56:50;;;;;;;26.98;21.33;;;;;;;14.41;100.00;100042.88;5031643;28;20217;-76
2022/09/25 06:59:17;;;;;;;26.13;20.48;;;;;;;14.52;100.00;100041.16;5028390;28;20242;-74
2022/09/25 07:01:43;;;;;;;30.05;21.30;;;;;;;14.61;100.00;100037.00;5015986;28;20203;-75
2022/09/25 07:04:09;;;;;;;28.58;19.95;;;;;;;14.66;100.00;100033.97;5018820;28;20217;-82
2022/09/25 07:06:36;;;;;;;30.07;22.60;;;;;;;14.64;100.00;100031.38;5004124;28;20203;-76
2022/09/25 07:09:03;;;;;;;28.77;22.50;;;;;;;14.67;100.00;100028.44;5025352;28;20661;-77
2022/09/25 07:11:31;;;;;;;28.85;21.38;;;;;;;14.77;100.00;100034.13;5022701;28;20574;-75
2022/09/25 07:13:59;;;;;;;27.25;21.17;;;;;;;14.77;100.00;100026.84;5036610;28;20260;-75
2022/09/25 07:16:27;;;;;;;27.05;20.90;;;;;;;14.80;100.00;100021.19;5025748;28;20577;-76
2022/09/25 07:18:54;;;;;;;30.15;21.33;;;;;;;14.86;100.00;100014.50;5015426;28;20219;-76
2022/09/25 07:21:23;;;;;;;28.67;21.55;;;;;;;14.83;100.00;100022.81;5018226;28;20608;-76
2022/09/25 07:23:51;;;;;;;31.90;22.00;;;;;;;14.92;100.00;100024.91;5016515;28;20291;-77
2022/09/25 07:26:21;;;;;;;29.60;22.42;;;;;;;14.90;100.00;100016.03;5017273;28;20573;-74
2022/09/25 07:28:49;;;;;;;28.70;21.05;;;;;;;14.92;100.00;100018.63;5014938;28;20226;-75
2022/09/25 07:31:18;;;;;;;29.50;21.92;;;;;;;14.94;100.00;100022.09;5015019;28;20195;-75
2022/09/25 07:33:45;;;;;;;23.33;19.50;;;;;;;15.02;100.00;100019.72;5017722;28;20232;-74
2022/09/25 07:36:13;;;;;;;26.80;19.35;;;;;;;15.13;100.00;100018.97;5015771;28;20213;-77
2022/09/25 07:38:40;;;;;;;28.88;21.50;;;;;;;15.25;100.00;100025.38;5015602;28;20214;-77
2022/09/25 07:41:09;;;;;;;34.70;23.95;;;;;;;15.38;100.00;100013.53;5012938;28;20285;-75
2022/09/25 07:43:37;;;;;;;27.00;20.52;;;;;;;15.43;100.00;100014.06;5020789;28;20194;-76
2022/09/25 07:46:04;;;;;;;27.13;19.95;;;;;;;15.40;100.00;100013.44;5028424;28;20230;-76
2022/09/25 07:48:32;;;;;;;26.90;20.25;;;;;;;15.58;100.00;100014.81;5015926;28;20230;-75
2022/09/25 07:51:01;;;;;;;24.63;18.60;;;;;;;15.77;100.00;100016.22;5017298;28;20194;-75
2022/09/25 07:53:28;;;;;;;29.58;22.95;;;;;;;15.75;100.00;100010.03;5017756;28;20202;-75
2022/09/25 07:55:57;;;;;;;26.58;19.67;;;;;;;15.71;100.00;100005.81;5018256;28;20287;-78
2022/09/25 07:58:23;;;;;;;24.05;19.73;;;;;;;15.68;100.00;100003.28;5015333;28;20630;-76
2022/09/25 08:00:50;;;;;;;23.13;18.23;;;;;;;15.53;100.00;100002.53;5018528;28;20209;-78
2022/09/25 08:03:17;;;;;;;23.80;19.25;;;;;;;15.48;100.00;100012.88;5014836;28;20269;-78
2022/09/25 08:05:45;;;;;;;23.17;18.15;;;;;;;15.57;100.00;100012.22;5016012;28;20226;-78
2022/09/25 08:08:11;;;;;;;23.33;18.88;;;;;;;15.55;100.00;100008.72;5015456;28;20205;-75
2022/09/25 08:10:38;;;;;;;24.08;18.63;;;;;;;15.50;100.00;100009.06;5028404;28;20222;-76
2022/09/25 08:13:04;;;;;;;22.60;17.20;;;;;;;15.59;100.00;100008.41;5023343;28;20637;-76
2022/09/25 08:15:31;;;;;;;24.15;19.17;;;;;;;15.66;100.00;100013.41;5024295;28;20314;-76
2022/09/25 08:17:58;;;;;;;25.88;18.60;;;;;;;15.58;100.00;100020.25;5023737;28;20210;-75
2022/09/25 08:20:24;;;;;;;25.45;19.35;;;;;;;15.49;100.00;100022.72;5021192;28;20214;-75
2022/09/25 08:22:56;;;;;;;25.73;19.10;;;;;;;15.43;100.00;100024.06;5023158;28;20198;-75
2022/09/25 08:25:22;;;;;;;23.60;18.00;;;;;;;15.23;100.00;100029.03;5020908;28;20201;-75
2022/09/25 08:27:50;;;;;;;26.38;19.42;;;;;;;15.25;100.00;100025.38;5019037;28;20209;-75
2022/09/25 08:30:17;;;;;;;24.45;18.67;;;;;;;15.28;100.00;100025.16;5021666;28;20736;-77
2022/09/25 08:32:43;;;;;;;22.92;18.38;;;;;;;15.25;100.00;100023.53;5018804;28;20273;-75
2022/09/25 08:35:10;;;;;;;25.08;19.50;;;;;;;15.22;100.00;100027.31;5026136;28;20229;-77
2022/09/25 08:37:40;;;;;;;24.15;18.63;;;;;;;15.20;100.00;100023.84;5030977;28;20620;-75
2022/09/25 08:40:17;;;;;;;26.10;20.13;;;;;;;15.20;100.00;100025.69;5021455;28;20218;-75
2022/09/25 08:42:46;;;;;;;24.42;19.10;;;;;;;15.25;100.00;100036.22;5021232;28;20187;-75
2022/09/25 08:51:08;;;;;;;26.40;20.15;;;;;;;15.20;100.00;100028.41;4957127;29;20228;-76
2022/09/25 08:53:36;;;;;;;23.80;19.35;;;;;;;15.28;100.00;100026.00;4950842;29;20201;-75
2022/09/25 08:56:16;;;;;;;22.80;17.98;;;;;;;15.38;100.00;100027.09;4957224;29;20196;-75
2022/09/25 08:58:48;;;;;;;23.38;18.58;;;;;;;15.51;100.00;100013.53;4959585;29;20244;-75
2022/09/25 09:01:18;;;;;;;23.52;17.80;;;;;;;15.60;100.00;100010.16;4958113;29;20193;-75
2022/09/25 09:03:49;;;;;;;23.55;19.02;;;;;;;15.80;100.00;100010.56;4959813;28;20224;-75
2022/09/25 09:06:17;;;;;;;23.02;18.42;;;;;;;15.89;100.00;100015.31;4961511;29;20200;-74
2022/09/25 09:08:49;;;;;;;22.48;18.17;;;;;;;16.01;100.00;100014.41;4961967;28;20223;-75
2022/09/25 09:11:22;;;;;;;22.80;18.27;;;;;;;16.03;100.00;100011.56;4970177;29;20204;-76
2022/09/25 09:13:54;;;;;;;24.15;18.50;;;;;;;16.03;100.00;100008.84;4968295;28;20275;-74
2022/09/25 09:16:28;;;;;;;20.52;16.60;;;;;;;16.04;100.00;100010.59;4962572;29;20216;-75
2022/09/25 09:18:56;;;;;;;25.15;18.25;;;;;;;16.03;100.00;100012.47;4958032;29;20224;-75
2022/09/25 09:21:28;;;;;;;23.80;18.50;;;;;;;15.99;100.00;100015.53;4956817;28;20738;-75
2022/09/25 09:24:04;;;;;;;21.02;16.70;;;;;;;16.05;100.00;100015.94;4999176;28;20198;-74
2022/09/25 09:26:44;;;;;;;19.08;15.27;;;;;;;16.09;100.00;100012.97;4999914;28;20695;-76
2022/09/25 09:29:50;;;;;;;22.17;17.90;;;;;;;16.01;100.00;100021.72;5007605;28;20218;-74
2022/09/25 09:32:49;;;;;;;20.92;17.55;;;;;;;15.88;100.00;100021.75;5012652;28;20256;-77
2022/09/25 09:35:24;;;;;;;22.92;18.10;;;;;;;15.89;100.00;100017.16;5017027;28;20215;-74
2022/09/25 09:38:01;;;;;;;20.80;17.75;;;;;;;15.87;100.00;100014.56;5021872;28;20206;-74
2022/09/25 09:40:45;;;;;;;21.05;16.23;;;;;;;15.77;100.00;100013.50;5034706;28;20222;-74
2022/09/25 09:43:30;;;;;;;24.40;19.60;;;;;;;15.71;100.00;100016.66;5029737;28;20230;-76
2022/09/25 09:46:03;;;;;;;22.65;17.90;;;;;;;15.62;100.00;100020.88;5019339;28;20198;-75
2022/09/25 09:48:36;;;;;;;21.85;17.98;;;;;;;15.48;100.00;100019.16;5017408;28;20616;-74
2022/09/25 09:51:09;;;;;;;23.67;18.10;;;;;;;15.44;100.00;100017.63;5017250;28;20194;-74
2022/09/25 09:53:43;;;;;;;23.80;18.05;;;;;;;15.27;100.00;100010.72;5021751;28;20270;-75
2022/09/25 09:56:13;;;;;;;23.23;18.90;;;;;;;15.22;100.00;100013.75;5021884;28;20308;-76
2022/09/25 09:58:46;;;;;;;23.58;18.70;;;;;;;15.26;100.00;100013.53;5022058;28;20219;-77
2022/09/25 10:01:14;;;;;;;26.13;19.13;;;;;;;15.23;100.00;100020.91;5025774;28;20199;-76
2022/09/25 10:03:42;;;;;;;23.20;18.58;;;;;;;15.28;100.00;100020.59;5025063;28;20293;-75
2022/09/25 10:06:11;;;;;;;24.15;18.90;;;;;;;15.27;100.00;100009.88;5022331;28;20278;-76
2022/09/25 10:08:38;;;;;;;24.58;18.75;;;;;;;15.23;100.00;100009.19;5018027;28;20237;-77
2022/09/25 10:11:13;;;;;;;23.63;18.05;;;;;;;15.31;100.00;100009.53;5010563;28;20286;-74
2022/09/25 10:13:43;;;;;;;21.30;17.17;;;;;;;15.27;100.00;100007.16;5015856;28;20202;-77
2022/09/25 10:16:14;;;;;;;26.85;19.75;;;;;;;15.48;100.00;100008.31;5017923;28;20609;-75
2022/09/25 10:18:46;;;;;;;26.42;19.83;;;;;;;15.54;100.00;100005.16;5020257;28;20224;-76
2022/09/25 10:21:17;;;;;;;23.23;18.17;;;;;;;15.61;100.00;99995.59;5021913;28;20203;-74
2022/09/25 10:23:49;;;;;;;23.00;18.20;;;;;;;15.80;100.00;99997.84;5037181;28;20206;-76
2022/09/25 10:26:27;;;;;;;20.60;16.58;;;;;;;15.93;100.00;99995.09;5028835;28;20190;-76
2022/09/25 10:28:57;;;;;;;21.58;18.02;;;;;;;16.08;100.00;99992.22;5013641;28;20225;-73
2022/09/25 10:31:26;;;;;;;19.70;17.60;;;;;;;16.41;100.00;99988.81;5012649;28;20202;-77
2022/09/25 10:34:05;;;;;;;20.25;16.60;;;;;;;16.58;100.00;99995.69;5016438;28;20201;-75
2022/09/25 10:36:36;;;;;;;21.77;17.92;;;;;;;16.94;100.00;99999.28;5013063;28;20224;-75
2022/09/25 10:39:04;;;;;;;19.65;15.55;;;;;;;16.99;100.00;99986.19;5014118;28;20589;-75
2022/09/25 10:41:41;;;;;;;19.35;15.27;;;;;;;17.08;100.00;99996.34;5014275;28;20748;-75
2022/09/25 10:44:22;;;;;;;17.50;14.63;;;;;;;16.90;100.00;100003.22;5018038;28;20197;-75
2022/09/25 10:52:46;;;;;;;17.10;14.32;;;;;;;16.89;100.00;100002.34;5010984;28;20202;-75
2022/09/25 10:55:19;;;;;;;18.27;14.77;;;;;;;16.92;100.00;100002.13;5017585;28;20288;-75
2022/09/25 10:57:49;;;;;;;20.77;16.63;;;;;;;16.70;100.00;99994.72;5020337;28;20202;-72
2022/09/25 11:00:23;;;;;;;18.80;15.20;;;;;;;16.59;100.00;100000.97;5021731;28;20231;-73
2022/09/25 11:02:53;;;;;;;17.88;13.55;;;;;;;16.38;100.00;99998.06;5014410;28;20276;-74
2022/09/25 11:05:25;;;;;;;13.32;11.77;;;;;;;16.08;100.00;100009.41;5010904;28;20275;-75
2022/09/25 11:07:55;;;;;;;22.23;11.90;;;;;;;15.91;100.00;100010.63;5004229;28;20285;-75
2022/09/25 11:10:26;;;;;;;16.95;13.43;;;;;;;15.78;100.00;100016.13;5005055;28;20226;-75
2022/09/25 11:12:55;;;;;;;14.35;12.25;;;;;;;15.74;100.00;100020.03;5009708;28;20288;-74
2022/09/25 11:15:26;;;;;;;14.32;12.68;;;;;;;15.66;100.00;100007.97;5025157;28;20241;-74
2022/09/25 11:17:54;;;;;;;11.18;9.90;;;;;;;15.59;100.00;100012.97;5006485;28;20203;-74
2022/09/25 11:20:29;;;;;;;19.40;11.40;;;;;;;15.46;100.00;100022.97;5017731;28;20229;-75
2022/09/25 11:23:05;;;;;;;11.65;10.00;;;;;;;15.33;100.00;100021.16;5018433;28;20190;-74
2022/09/25 11:25:39;;;;;;;13.07;9.52;;;;;;;15.31;100.00;100020.38;5022572;28;20198;-73
2022/09/25 11:28:16;;;;;;;10.90;8.75;;;;;;;15.34;100.00;100022.00;5013425;28;20197;-74
2022/09/25 11:30:48;;;;;;;10.95;9.70;;;;;;;15.35;100.00;100018.31;5018735;28;20206;-74
2022/09/25 11:33:23;;;;;;;9.85;8.85;;;;;;;15.32;100.00;100016.69;5017463;28;20199;-75